Terminal Aerodrome Forecast
Issued by NWS

Home | Current Version | Previous Version | Text Only | Print | Product List | Glossary On
Versions: 1 2 3 4 5 6 7 8 9 10 11 12 13 14 15 16 17 18 19 20 21 22 23 24 25 26 27 28 29 30 31 32 33 34 35 36 37 38 39 40 41 42 43 44 45 46
000
FTUS41 KBOX 260536
TAFMHT
TAF
KMHT 260536Z 2606/2706 VRB03KT P6SM SCT120
     FM261400 VRB03KT 3SM -RASN OVC090
     FM261600 VRB03KT 3SM -SN OVC025
     FM261800 02004KT 1/4SM +SN OVC008
     FM270100 01010G21KT 1/2SM SN OVC010
     FM270400 35009KT 1SM -SN OVC015
     FM270500 35009KT P6SM OVC015=

USA.gov is the U.S. government's official web portal to all federal, state and local government web resources and services.